Time;durP1;ratioP1;P1;durP2;ratioP2;P2;SDS_P1;SDS_P2;PMS_P1;PMS_P2;Temp;Humidity;BMP_temperature;BMP_pressure;BME280_temperature;BME280_humidity;BME280_pressure;Samples;Min_cycle;Max_cycle;Signal;HPM_P1;HPM_P2
2023/03/24 00:02:20;;;;;;;6.25;2.10;;;11.90;99.90;;;;;;5093821;28;20077;-40
2023/03/24 00:04:52;;;;;;;10.77;3.58;;;11.90;99.90;;;;;;5098806;28;20122;-40
2023/03/24 00:07:18;;;;;;;6.28;2.28;;;11.90;99.90;;;;;;5102787;28;20054;-38
2023/03/24 00:09:44;;;;;;;5.25;2.28;;;11.90;99.90;;;;;;5097223;28;20027;-37
2023/03/24 00:12:13;;;;;;;3.28;2.00;;;12.00;99.90;;;;;;5100793;28;20031;-40
2023/03/24 00:14:39;;;;;;;6.15;1.90;;;11.90;99.90;;;;;;5093888;28;20039;-39
2023/03/24 00:17:13;;;;;;;5.68;2.25;;;11.90;99.90;;;;;;5099560;28;20369;-40
2023/03/24 00:19:39;;;;;;;5.90;2.25;;;11.90;99.90;;;;;;5105506;27;20027;-40
2023/03/24 00:22:13;;;;;;;2.90;2.05;;;11.90;99.90;;;;;;5100702;28;20027;-40
2023/03/24 00:24:39;;;;;;;9.65;2.20;;;11.90;99.90;;;;;;5104671;28;20024;-43
2023/03/24 00:27:06;;;;;;;8.43;2.45;;;11.90;99.90;;;;;;5110149;28;20121;-42
2023/03/24 00:29:32;;;;;;;2.30;1.73;;;11.90;99.90;;;;;;5106173;28;20024;-32
2023/03/24 00:31:58;;;;;;;2.58;1.83;;;11.80;99.90;;;;;;5097169;28;20035;-36
2023/03/24 00:34:24;;;;;;;3.67;2.10;;;11.90;99.90;;;;;;5099550;28;20044;-38
2023/03/24 00:36:51;;;;;;;5.22;2.28;;;11.90;99.90;;;;;;5107420;28;20431;-39
2023/03/24 00:39:20;;;;;;;4.82;2.20;;;11.90;99.90;;;;;;5103101;28;20387;-42
2023/03/24 00:41:47;;;;;;;4.35;1.90;;;11.90;99.90;;;;;;5114213;28;20480;-42
2023/03/24 00:44:17;;;;;;;4.03;1.97;;;12.00;99.90;;;;;;5097398;28;20410;-44
2023/03/24 00:46:54;;;;;;;7.97;2.00;;;12.00;99.90;;;;;;5108253;28;20027;-41
2023/03/24 00:49:40;;;;;;;7.25;2.45;;;12.00;99.90;;;;;;5099834;28;20020;-42
2023/03/24 00:52:11;;;;;;;5.18;2.35;;;12.00;99.90;;;;;;5101563;28;20465;-44
2023/03/24 00:54:38;;;;;;;8.45;2.40;;;12.00;99.90;;;;;;5113364;28;20102;-39
2023/03/24 00:57:06;;;;;;;4.38;2.10;;;12.00;99.90;;;;;;5103807;28;20019;-44
2023/03/24 00:59:36;;;;;;;2.95;2.15;;;12.00;99.90;;;;;;5113955;28;20032;-43
2023/03/24 01:02:03;;;;;;;3.22;2.25;;;12.10;99.90;;;;;;5113935;28;20027;-40
2023/03/24 01:04:29;;;;;;;3.28;2.10;;;12.10;99.90;;;;;;5099476;28;20574;-39
2023/03/24 01:06:57;;;;;;;3.05;2.10;;;12.10;99.90;;;;;;5093296;28;20024;-40
2023/03/24 01:09:22;;;;;;;7.50;2.15;;;12.20;99.90;;;;;;5093086;28;20392;-40
2023/03/24 01:11:49;;;;;;;7.45;2.63;;;12.20;99.90;;;;;;5107293;28;20023;-40
2023/03/24 01:14:15;;;;;;;5.85;2.42;;;12.20;99.90;;;;;;5094219;28;20101;-39
2023/03/24 01:16:41;;;;;;;5.35;2.05;;;12.20;99.90;;;;;;5091716;28;20027;-42
2023/03/24 01:19:10;;;;;;;5.57;2.22;;;12.10;99.90;;;;;;5093029;28;20028;-41
2023/03/24 01:21:37;;;;;;;5.00;2.03;;;12.10;99.90;;;;;;5093564;28;20062;-40
2023/03/24 01:24:04;;;;;;;4.10;2.22;;;12.20;99.90;;;;;;5092971;28;20024;-46
2023/03/24 01:26:30;;;;;;;7.40;2.67;;;12.20;99.90;;;;;;5093273;28;20106;-42
2023/03/24 01:28:56;;;;;;;2.58;2.33;;;12.20;99.90;;;;;;5092962;28;20496;-43
2023/03/24 01:31:22;;;;;;;6.30;2.30;;;12.20;99.90;;;;;;5111310;28;20095;-40
2023/03/24 01:33:48;;;;;;;3.50;2.30;;;12.20;99.90;;;;;;5113294;28;20063;-42
2023/03/24 01:36:13;;;;;;;8.23;1.80;;;12.20;99.90;;;;;;5113156;28;20101;-49
2023/03/24 01:38:39;;;;;;;5.57;2.15;;;12.20;99.90;;;;;;5112665;28;20032;-42
2023/03/24 01:41:06;;;;;;;5.70;2.40;;;12.20;99.90;;;;;;5114626;28;20028;-43
2023/03/24 01:43:33;;;;;;;5.47;2.55;;;12.20;99.90;;;;;;5116026;28;20096;-44
2023/03/24 01:46:12;;;;;;;5.68;2.85;;;12.20;99.90;;;;;;5109154;28;20024;-40
2023/03/24 01:48:49;;;;;;;8.88;2.58;;;12.20;99.90;;;;;;5096924;28;20085;-43
2023/03/24 01:51:37;;;;;;;7.47;3.10;;;12.30;99.90;;;;;;5098079;28;20463;-47
2023/03/24 01:54:15;;;;;;;5.15;2.25;;;12.30;99.90;;;;;;5111544;27;20031;-39
2023/03/24 01:56:47;;;;;;;4.55;2.17;;;12.30;99.90;;;;;;5115677;28;20124;-42
2023/03/24 01:59:19;;;;;;;5.72;2.17;;;12.20;99.90;;;;;;5117030;28;20055;-43
2023/03/24 02:01:45;;;;;;;4.15;2.58;;;12.20;99.90;;;;;;5110180;28;20031;-46
2023/03/24 02:04:12;;;;;;;3.85;2.58;;;12.20;99.90;;;;;;5100594;28;20087;-43
2023/03/24 02:06:42;;;;;;;4.18;2.33;;;12.30;99.90;;;;;;5112023;28;20102;-40
2023/03/24 02:09:10;;;;;;;8.85;3.42;;;12.30;99.90;;;;;;5095332;28;20408;-42
2023/03/24 02:11:37;;;;;;;2.80;2.15;;;12.30;99.90;;;;;;5105473;28;20065;-41
2023/03/24 02:14:06;;;;;;;4.13;2.90;;;12.30;99.90;;;;;;5102234;28;20036;-41
2023/03/24 02:16:31;;;;;;;;;;;12.30;99.90;;;;;;5098172;28;20484;-38
2023/03/24 02:19:03;;;;;;;3.97;1.98;;;12.30;99.90;;;;;;5103720;28;19908;-41
2023/03/24 02:21:37;;;;;;;2.67;2.15;;;12.30;99.90;;;;;;5116682;28;20032;-39
2023/03/24 02:24:09;;;;;;;3.17;1.55;;;12.30;99.90;;;;;;5114008;28;20046;-39
2023/03/24 02:27:00;;;;;;;6.80;2.17;;;12.30;99.90;;;;;;5094966;28;20036;-40
2023/03/24 02:29:54;;;;;;;3.78;1.20;;;12.20;99.90;;;;;;5104391;28;20073;-40
2023/03/24 02:32:29;;;;;;;1.55;1.08;;;12.20;99.90;;;;;;5116485;28;20415;-41
2023/03/24 02:35:01;;;;;;;4.15;1.50;;;12.20;99.90;;;;;;5114484;28;20077;-41
2023/03/24 02:38:02;;;;;;;4.80;1.05;;;12.10;99.90;;;;;;5112907;28;20533;-39
2023/03/24 02:40:40;;;;;;;1.23;0.82;;;12.00;99.90;;;;;;5116329;28;20037;-40
2023/03/24 02:43:28;;;;;;;2.75;1.35;;;11.90;99.90;;;;;;5115475;28;20043;-38
2023/03/24 02:46:14;;;;;;;4.55;1.45;;;11.80;99.90;;;;;;5096354;28;20031;-43
2023/03/24 02:49:10;;;;;;;3.05;1.00;;;11.80;99.90;;;;;;5095112;28;20032;-40
2023/03/24 02:51:50;;;;;;;4.80;0.70;;;11.70;99.90;;;;;;5095511;28;20484;-39
2023/03/24 02:54:26;;;;;;;6.13;1.00;;;11.60;99.90;;;;;;5104621;28;20102;-39
2023/03/24 02:57:04;;;;;;;1.50;0.95;;;11.60;99.90;;;;;;5116054;28;20028;-40
2023/03/24 02:59:39;;;;;;;;;;;11.50;99.90;;;;;;5116442;28;20030;-33
2023/03/24 03:02:18;;;;;;;1.17;0.63;;;11.50;99.90;;;;;;5115140;28;19912;-37
2023/03/24 03:05:04;;;;;;;6.63;0.90;;;11.50;99.90;;;;;;5114140;28;20038;-33
2023/03/24 03:07:36;;;;;;;11.55;1.00;;;11.50;99.90;;;;;;5095761;28;20028;-37
2023/03/24 03:10:45;;;;;;;5.95;1.17;;;11.50;99.90;;;;;;5112782;28;20031;-36
2023/03/24 03:13:17;;;;;;;5.07;0.82;;;11.40;99.90;;;;;;5094958;28;20056;-35
2023/03/24 03:15:46;;;;;;;5.57;1.20;;;11.40;99.90;;;;;;5100568;28;20038;-36
2023/03/24 03:18:35;;;;;;;4.90;1.38;;;11.30;99.90;;;;;;5105992;28;20024;-35
2023/03/24 03:21:06;;;;;;;6.60;0.93;;;11.30;99.90;;;;;;5106637;28;20035;-35
2023/03/24 03:23:37;;;;;;;6.63;1.10;;;11.30;99.90;;;;;;5104453;28;20032;-38
2023/03/24 03:26:08;;;;;;;5.68;0.90;;;11.20;99.90;;;;;;5102980;28;20026;-33
2023/03/24 03:28:37;;;;;;;9.50;1.30;;;11.10;99.90;;;;;;5115701;28;20015;-32
2023/03/24 03:31:09;;;;;;;10.25;1.23;;;11.00;99.90;;;;;;5102911;28;20028;-34
2023/03/24 03:33:39;;;;;;;7.22;1.08;;;10.90;99.90;;;;;;5098487;28;20479;-36
2023/03/24 03:36:27;;;;;;;5.55;1.10;;;10.90;99.90;;;;;;5094714;28;20084;-33
2023/03/24 03:39:12;;;;;;;6.88;1.20;;;10.90;99.90;;;;;;5094756;28;20028;-35
2023/03/24 03:41:39;;;;;;;6.93;1.88;;;10.90;99.90;;;;;;5097920;28;20019;-33
2023/03/24 03:44:05;;;;;;;7.57;1.90;;;10.90;99.90;;;;;;5095311;27;20031;-35
2023/03/24 03:46:31;;;;;;;7.53;1.13;;;10.80;99.90;;;;;;5094838;28;20476;-36
2023/03/24 03:48:57;;;;;;;11.05;1.80;;;10.80;99.90;;;;;;5102176;28;20034;-38
2023/03/24 03:51:23;;;;;;;7.05;2.22;;;10.80;99.90;;;;;;5114923;28;20030;-35
2023/03/24 03:53:57;;;;;;;7.05;1.13;;;10.80;99.90;;;;;;5114082;28;20023;-35
2023/03/24 03:56:25;;;;;;;6.32;2.08;;;10.70;99.90;;;;;;5115155;28;20024;-36
2023/03/24 03:58:52;;;;;;;4.82;1.63;;;10.70;99.90;;;;;;5108597;28;20032;-35
2023/03/24 04:01:21;;;;;;;3.47;1.33;;;10.70;99.90;;;;;;5114735;28;20498;-37
2023/03/24 04:04:24;;;;;;;7.88;1.77;;;10.70;99.90;;;;;;5112196;28;20024;-35
2023/03/24 04:07:13;;;;;;;11.32;1.65;;;10.70;99.90;;;;;;5112686;28;20039;-35
2023/03/24 04:10:16;;;;;;;12.75;2.08;;;10.80;99.90;;;;;;5114637;28;20032;-40
2023/03/24 04:13:20;;;;;;;10.18;2.10;;;10.80;99.90;;;;;;5114435;28;20453;-36
2023/03/24 04:16:19;;;;;;;5.93;1.02;;;10.80;99.90;;;;;;5109762;27;20027;-36
2023/03/24 04:19:07;;;;;;;7.05;2.17;;;10.90;99.90;;;;;;5085037;28;20055;-38
2023/03/24 04:21:57;;;;;;;7.13;1.30;;;10.90;99.90;;;;;;5114635;28;20032;-37
2023/03/24 04:24:26;;;;;;;7.93;1.50;;;10.90;99.90;;;;;;5109121;28;20031;-36
2023/03/24 04:26:54;;;;;;;8.75;2.00;;;10.90;99.90;;;;;;5094892;28;20036;-39
2023/03/24 04:29:51;;;;;;;13.77;1.83;;;10.90;99.90;;;;;;5092580;28;20032;-35
2023/03/24 04:33:21;;;;;;;12.95;2.65;;;10.90;99.90;;;;;;5094529;28;20099;-36
2023/03/24 04:36:06;;;;;;;12.07;1.52;;;10.90;99.90;;;;;;5070864;28;20044;-36
2023/03/24 04:38:35;;;;;;;7.78;1.98;;;10.90;99.90;;;;;;5096449;28;20114;-37
2023/03/24 04:41:04;;;;;;;10.38;2.72;;;10.90;99.90;;;;;;5112117;28;20035;-37
2023/03/24 04:43:34;;;;;;;13.98;2.00;;;11.00;99.90;;;;;;5114110;28;20070;-36
2023/03/24 04:46:02;;;;;;;11.60;1.85;;;11.00;99.90;;;;;;5113078;28;20031;-40
2023/03/24 04:48:28;;;;;;;11.85;1.55;;;10.90;99.90;;;;;;5110322;28;20421;-39
2023/03/24 04:50:59;;;;;;;11.23;1.77;;;10.90;99.90;;;;;;5108420;28;20020;-39
2023/03/24 04:53:26;;;;;;;13.95;1.73;;;10.90;99.90;;;;;;5106453;28;20027;-37
2023/03/24 04:56:26;;;;;;;12.70;2.47;;;10.90;99.90;;;;;;5113710;28;20518;-39
2023/03/24 04:58:51;;;;;;;17.63;2.70;;;10.90;99.90;;;;;;5075656;28;20393;-36
2023/03/24 05:01:20;;;;;;;10.15;1.70;;;10.90;99.90;;;;;;5093784;28;20020;-41
2023/03/24 05:03:46;;;;;;;13.55;2.22;;;10.90;99.90;;;;;;5094839;28;20059;-37
2023/03/24 05:06:12;;;;;;;12.02;1.88;;;10.90;99.90;;;;;;5100749;28;20023;-38
2023/03/24 05:08:38;;;;;;;18.00;2.53;;;10.80;99.90;;;;;;5109305;28;20024;-38
2023/03/24 05:11:04;;;;;;;13.43;1.60;;;10.80;99.90;;;;;;5093168;28;20024;-39
2023/03/24 05:13:30;;;;;;;13.75;1.77;;;10.90;99.90;;;;;;5095189;28;20031;-41
2023/03/24 05:15:57;;;;;;;18.75;1.70;;;10.80;99.90;;;;;;5092961;28;20255;-38
2023/03/24 05:18:22;;;;;;;20.25;2.40;;;10.70;99.90;;;;;;5103352;28;20019;-37
2023/03/24 05:20:48;;;;;;;20.40;1.80;;;10.70;99.90;;;;;;5103555;28;20434;-36
2023/03/24 05:23:14;;;;;;;16.58;2.75;;;10.60;99.90;;;;;;5097855;28;20020;-37
2023/03/24 05:25:39;;;;;;;16.17;1.90;;;10.60;99.90;;;;;;5105287;28;20023;-37
2023/03/24 05:28:05;;;;;;;19.60;2.78;;;10.50;99.90;;;;;;5112605;28;20027;-38
2023/03/24 05:30:31;;;;;;;11.57;1.60;;;10.50;99.90;;;;;;5094310;28;20020;-40
2023/03/24 05:32:56;;;;;;;16.70;1.65;;;10.50;99.90;;;;;;5092876;28;20110;-40
2023/03/24 05:35:23;;;;;;;15.05;2.72;;;10.50;99.90;;;;;;5093351;28;20496;-38
2023/03/24 05:37:49;;;;;;;16.98;2.20;;;10.50;99.90;;;;;;5092817;28;20026;-36
2023/03/24 05:40:15;;;;;;;16.88;2.35;;;10.50;99.90;;;;;;5093048;28;20024;-40
2023/03/24 05:42:41;;;;;;;16.13;3.85;;;10.50;99.90;;;;;;5093963;28;20024;-38
2023/03/24 05:45:08;;;;;;;26.83;3.35;;;10.50;99.90;;;;;;5100856;28;20031;-38
2023/03/24 05:47:34;;;;;;;20.40;3.00;;;10.50;99.90;;;;;;5113178;28;20031;-38
2023/03/24 05:50:00;;;;;;;13.23;2.35;;;10.50;99.90;;;;;;5112997;28;20456;-41
2023/03/24 05:52:26;;;;;;;11.10;2.13;;;10.50;99.90;;;;;;5112115;28;20068;-35
2023/03/24 05:54:51;;;;;;;17.88;2.75;;;10.50;99.90;;;;;;5113088;28;20483;-38
2023/03/24 05:57:18;;;;;;;18.10;2.58;;;10.60;99.90;;;;;;5113040;28;20099;-41
2023/03/24 05:59:44;;;;;;;13.90;2.40;;;10.60;99.90;;;;;;5110422;28;20031;-37
2023/03/24 06:02:10;;;;;;;18.08;2.63;;;10.60;99.90;;;;;;5102825;28;20107;-39
2023/03/24 06:04:36;;;;;;;13.90;2.30;;;10.70;99.90;;;;;;5110509;28;20119;-40
2023/03/24 06:07:03;;;;;;;14.38;2.00;;;10.60;99.90;;;;;;5104604;28;20031;-40
2023/03/24 06:09:34;;;;;;;14.73;2.28;;;10.70;99.90;;;;;;5099285;28;20380;-37
2023/03/24 06:12:01;;;;;;;14.32;2.55;;;10.70;99.90;;;;;;5092822;28;20080;-33
2023/03/24 06:14:27;;;;;;;14.30;2.60;;;10.70;99.90;;;;;;5098977;28;20475;-39
2023/03/24 06:16:58;;;;;;;7.65;1.65;;;10.70;99.90;;;;;;5109356;28;20023;-37
2023/03/24 06:19:29;;;;;;;6.30;1.25;;;10.70;99.90;;;;;;5093052;28;20385;-38
2023/03/24 06:21:59;;;;;;;11.15;1.52;;;10.70;99.90;;;;;;5092425;28;20035;-36
2023/03/24 06:24:26;;;;;;;10.45;2.17;;;10.70;99.90;;;;;;5104274;28;20028;-38
2023/03/24 06:26:51;;;;;;;16.67;1.88;;;10.80;99.90;;;;;;5112047;28;20387;-39
2023/03/24 06:29:17;;;;;;;8.73;1.83;;;10.80;99.90;;;;;;5115488;28;20028;-36
2023/03/24 06:31:44;;;;;;;21.48;3.65;;;10.80;99.90;;;;;;5115190;28;20027;-38
2023/03/24 06:34:10;;;;;;;8.77;1.85;;;10.90;99.90;;;;;;5115180;28;20023;-39
2023/03/24 06:36:36;;;;;;;13.07;2.13;;;10.90;99.90;;;;;;5103287;27;20418;-39
2023/03/24 06:39:04;;;;;;;9.77;1.70;;;10.90;99.90;;;;;;5095946;28;20035;-38
2023/03/24 06:41:30;;;;;;;10.60;1.75;;;10.90;99.90;;;;;;5096249;28;20035;-35
2023/03/24 06:43:56;;;;;;;17.55;1.98;;;10.90;99.90;;;;;;5096038;28;20028;-36
2023/03/24 06:46:22;;;;;;;19.33;3.60;;;11.00;99.90;;;;;;5095931;28;20022;-37
2023/03/24 06:48:48;;;;;;;10.75;1.98;;;11.00;99.90;;;;;;5095777;28;20027;-37
2023/03/24 06:51:13;;;;;;;14.85;1.73;;;11.00;99.90;;;;;;5096253;28;20017;-42
2023/03/24 06:53:40;;;;;;;12.07;1.88;;;11.10;99.90;;;;;;5096350;28;20106;-45
2023/03/24 06:56:06;;;;;;;9.15;1.92;;;11.10;99.90;;;;;;5111044;28;20030;-45
2023/03/24 06:58:32;;;;;;;11.40;1.98;;;11.10;99.90;;;;;;5114654;28;20027;-45
2023/03/24 07:01:00;;;;;;;9.70;2.35;;;11.20;99.90;;;;;;5105234;28;20035;-43
2023/03/24 07:03:25;;;;;;;19.10;3.97;;;11.20;99.90;;;;;;5104566;28;20055;-44
2023/03/24 07:05:51;;;;;;;15.50;2.40;;;11.30;99.90;;;;;;5114804;28;20489;-44
2023/03/24 07:08:18;;;;;;;9.75;1.65;;;11.30;99.90;;;;;;5100978;27;20013;-45
2023/03/24 07:10:44;;;;;;;8.65;2.63;;;11.30;99.90;;;;;;5100853;28;20031;-44
2023/03/24 07:13:10;;;;;;;5.55;1.48;;;11.40;99.90;;;;;;5096539;28;20016;-48
2023/03/24 07:15:36;;;;;;;8.55;2.03;;;11.50;99.90;;;;;;5104639;28;21377;-43
2023/03/24 07:18:01;;;;;;;16.10;1.95;;;11.50;99.90;;;;;;5095337;28;20016;-43
2023/03/24 07:20:27;;;;;;;12.02;3.25;;;11.50;99.90;;;;;;5098494;28;20103;-46
2023/03/24 07:22:56;;;;;;;13.77;3.08;;;11.60;99.90;;;;;;5108437;27;20114;-48
2023/03/24 07:25:23;;;;;;;11.65;1.88;;;11.50;99.90;;;;;;5131863;27;20031;-44
2023/03/24 07:27:52;;;;;;;9.77;2.13;;;11.60;99.90;;;;;;5114581;28;20405;-44
2023/03/24 07:30:18;;;;;;;12.43;2.55;;;11.60;99.90;;;;;;5115368;28;20023;-46
2023/03/24 07:32:44;;;;;;;14.57;2.28;;;11.60;99.90;;;;;;5115199;28;20467;-45
2023/03/24 07:35:12;;;;;;;10.32;1.77;;;11.70;99.90;;;;;;5101268;28;20047;-44
2023/03/24 07:37:38;;;;;;;;;;;11.70;99.90;;;;;;5094935;28;20472;-45
2023/03/24 07:40:10;;;;;;;7.18;2.03;;;11.80;99.90;;;;;;5093864;28;19960;-42
2023/03/24 07:42:37;;;;;;;11.38;2.10;;;11.90;99.90;;;;;;5094998;28;20028;-45
2023/03/24 07:45:04;;;;;;;8.70;2.25;;;12.00;99.90;;;;;;5095691;28;20027;-45
2023/03/24 07:47:30;;;;;;;11.67;3.67;;;12.00;99.90;;;;;;5094861;28;20028;-49
2023/03/24 07:49:56;;;;;;;12.02;2.42;;;12.00;99.90;;;;;;5094812;28;20024;-43
2023/03/24 07:52:22;;;;;;;11.35;1.90;;;12.10;99.90;;;;;;5107850;28;20094;-45
2023/03/24 07:54:48;;;;;;;13.98;1.90;;;12.20;99.90;;;;;;5114992;28;20049;-44
2023/03/24 07:57:13;;;;;;;14.68;2.97;;;12.20;99.90;;;;;;5115101;28;20027;-44
2023/03/24 07:59:39;;;;;;;9.55;1.98;;;12.30;99.90;;;;;;5113603;28;20434;-49
2023/03/24 08:02:08;;;;;;;18.52;1.60;;;12.30;99.90;;;;;;5098035;28;20032;-41
2023/03/24 08:04:34;;;;;;;9.82;1.80;;;12.30;99.90;;;;;;5099631;28;20110;-42
2023/03/24 08:06:59;;;;;;;10.15;2.28;;;12.30;99.90;;;;;;5114927;28;20429;-43
2023/03/24 08:09:25;;;;;;;16.08;2.75;;;12.30;99.90;;;;;;5100419;28;20028;-42
2023/03/24 08:11:51;;;;;;;15.63;2.33;;;12.30;99.90;;;;;;5094179;28;20107;-45
2023/03/24 08:14:16;;;;;;;18.08;2.72;;;12.30;99.90;;;;;;5094013;28;20024;-44
2023/03/24 08:16:44;;;;;;;12.70;2.97;;;12.30;99.90;;;;;;5094068;28;20024;-45
2023/03/24 08:19:10;;;;;;;;;;;12.60;99.90;;;;;;5094900;28;20024;-45
2023/03/24 08:21:36;;;;;;;11.20;2.00;;;12.70;99.90;;;;;;5102526;28;19912;-43
2023/03/24 08:24:02;;;;;;;11.63;1.95;;;12.80;99.90;;;;;;5100106;28;20051;-46
2023/03/24 08:26:29;;;;;;;14.32;2.67;;;12.90;99.90;;;;;;5113295;28;20038;-45
2023/03/24 08:28:55;;;;;;;11.57;2.08;;;12.90;99.90;;;;;;5103912;28;20077;-46
2023/03/24 08:31:21;;;;;;;13.40;2.03;;;12.80;99.90;;;;;;5093833;28;20035;-44
2023/03/24 08:33:46;;;;;;;13.10;2.22;;;12.80;99.90;;;;;;5093785;28;20519;-46
2023/03/24 08:36:12;;;;;;;6.03;2.20;;;12.90;99.90;;;;;;5104433;28;20052;-43
2023/03/24 08:38:38;;;;;;;13.35;1.95;;;12.90;99.90;;;;;;5114057;28;20027;-43
2023/03/24 08:41:05;;;;;;;19.25;2.85;;;12.90;99.90;;;;;;5104236;28;20023;-42
2023/03/24 08:43:33;;;;;;;17.70;2.60;;;12.80;99.90;;;;;;5094484;28;20069;-51
2023/03/24 08:46:00;;;;;;;11.32;2.25;;;12.90;99.90;;;;;;5093931;28;20473;-45
2023/03/24 08:48:28;;;;;;;9.05;2.05;;;12.90;99.90;;;;;;5093818;28;20024;-44
2023/03/24 08:50:55;;;;;;;10.05;2.03;;;12.90;99.90;;;;;;5100451;27;20027;-45
2023/03/24 08:53:21;;;;;;;8.55;2.13;;;12.90;99.90;;;;;;5095159;28;20503;-47
2023/03/24 08:55:47;;;;;;;8.65;1.85;;;13.00;99.90;;;;;;5093918;27;20028;-46
2023/03/24 08:58:15;;;;;;;11.48;1.85;;;12.90;99.90;;;;;;5093693;28;20069;-46
2023/03/24 09:00:43;;;;;;;12.82;3.50;;;12.80;99.90;;;;;;5093909;28;20028;-49
2023/03/24 09:03:12;;;;;;;14.63;2.13;;;12.70;99.90;;;;;;5093136;28;20035;-41
2023/03/24 09:05:37;;;;;;;12.23;1.73;;;12.70;99.90;;;;;;5093214;28;20111;-51
2023/03/24 09:08:03;;;;;;;8.07;2.08;;;12.60;99.90;;;;;;5098602;27;20421;-42
2023/03/24 09:10:29;;;;;;;7.35;1.70;;;12.80;99.90;;;;;;5093579;28;20396;-48
2023/03/24 09:12:54;;;;;;;7.47;1.48;;;12.90;99.90;;;;;;5096818;28;20375;-42
2023/03/24 09:15:20;;;;;;;13.25;2.70;;;13.00;99.90;;;;;;5102067;28;20484;-49
2023/03/24 09:17:47;;;;;;;13.52;1.98;;;13.20;99.90;;;;;;5106462;28;20023;-42
2023/03/24 09:20:14;;;;;;;11.20;1.60;;;13.30;99.90;;;;;;5103280;28;20028;-43
2023/03/24 09:22:45;;;;;;;7.35;1.92;;;13.30;99.90;;;;;;5101225;28;20030;-46
2023/03/24 09:25:14;;;;;;;17.52;1.95;;;13.10;99.90;;;;;;5095888;28;20310;-50
2023/03/24 09:27:40;;;;;;;6.10;2.10;;;12.90;99.90;;;;;;5111009;28;20099;-42
2023/03/24 09:30:08;;;;;;;11.40;2.28;;;12.80;99.90;;;;;;5103217;28;20047;-43
2023/03/24 09:32:34;;;;;;;8.57;1.83;;;12.90;99.90;;;;;;5093179;28;20069;-42
2023/03/24 09:35:00;;;;;;;10.90;1.95;;;12.90;99.90;;;;;;5095451;28;20044;-47
2023/03/24 09:37:31;;;;;;;16.45;1.90;;;13.00;99.90;;;;;;5090326;28;20040;-45
2023/03/24 09:39:58;;;;;;;8.75;1.75;;;12.90;99.90;;;;;;5099263;28;20083;-44
2023/03/24 09:42:28;;;;;;;5.95;1.40;;;12.90;99.90;;;;;;5111605;28;20032;-43
2023/03/24 09:45:00;;;;;;;6.85;1.95;;;13.10;99.90;;;;;;5101163;28;20495;-46
2023/03/24 09:48:04;;;;;;;9.38;3.20;;;13.10;99.90;;;;;;5090563;28;20032;-44
2023/03/24 09:50:38;;;;;;;7.93;1.83;;;13.10;99.90;;;;;;5077106;28;20029;-40
2023/03/24 09:53:20;;;;;;;11.60;1.88;;;13.00;99.90;;;;;;5099807;28;20062;-48
2023/03/24 09:55:48;;;;;;;13.95;2.28;;;13.20;99.90;;;;;;5102761;28;20043;-51
2023/03/24 09:58:14;;;;;;;15.05;1.67;;;13.40;99.90;;;;;;5101846;28;20475;-43
2023/03/24 10:00:41;;;;;;;11.43;1.63;;;13.60;99.90;;;;;;5100281;28;20036;-46
2023/03/24 10:03:21;;;;;;;6.63;1.50;;;13.90;99.90;;;;;;5111412;28;20036;-49
2023/03/24 10:05:51;;;;;;;7.47;1.40;;;14.20;99.90;;;;;;5112225;28;20118;-43
2023/03/24 10:08:41;;;;;;;8.88;1.95;;;14.60;99.90;;;;;;5095572;28;20546;-47
2023/03/24 10:11:41;;;;;;;3.58;1.45;;;14.80;99.90;;;;;;5097514;28;20020;-50
2023/03/24 10:14:09;;;;;;;7.88;1.60;;;15.00;99.90;;;;;;5098664;28;20403;-48
2023/03/24 10:16:54;;;;;;;8.13;1.95;;;15.10;99.90;;;;;;5101544;28;20504;-47
2023/03/24 10:20:01;;;;;;;10.43;1.60;;;15.10;99.90;;;;;;5098680;28;20028;-45
2023/03/24 10:22:56;;;;;;;12.20;2.33;;;15.30;99.90;;;;;;5108491;28;20054;-45
2023/03/24 10:25:42;;;;;;;15.27;1.85;;;15.20;99.90;;;;;;5104495;28;20032;-43
2023/03/24 10:28:25;;;;;;;7.97;1.70;;;15.20;99.90;;;;;;5094788;28;20055;-51
2023/03/24 10:30:54;;;;;;;11.27;2.38;;;15.10;99.90;;;;;;5097365;28;20034;-36
2023/03/24 10:33:20;;;;;;;5.57;1.40;;;14.90;99.90;;;;;;5109638;28;20028;-36
2023/03/24 10:36:13;;;;;;;14.48;1.83;;;14.90;99.90;;;;;;5063203;28;1076905;-38
2023/03/24 10:38:39;;;;;;;11.95;2.10;;;15.20;99.90;;;;;;5116662;28;20503;-43
2023/03/24 10:41:05;;;;;;;5.25;1.52;;;15.50;99.90;;;;;;5105416;28;20032;-46
2023/03/24 10:43:32;;;;;;;10.48;2.00;;;15.70;99.90;;;;;;5116211;28;20107;-46
2023/03/24 10:45:58;;;;;;;12.75;1.60;;;15.80;99.90;;;;;;5116304;28;20042;-45
2023/03/24 10:49:05;;;;;;;5.88;1.98;;;15.60;99.90;;;;;;5116211;28;20024;-43
2023/03/24 10:51:33;;;;;;;9.60;1.75;;;15.40;99.90;;;;;;5116122;27;20526;-48
2023/03/24 10:54:51;;;;;;;10.68;1.60;;;15.20;99.90;;;;;;5097808;28;20031;-46
2023/03/24 10:57:18;;;;;;;14.88;2.97;;;15.30;99.90;;;;;;5067428;28;20568;-47
2023/03/24 10:59:55;;;;;;;8.68;1.85;;;15.50;99.90;;;;;;5045245;28;20058;-43
2023/03/24 11:02:29;;;;;;;14.25;1.35;;;15.60;99.90;;;;;;5083930;28;20495;-43
2023/03/24 11:05:17;;;;;;;18.92;2.58;;;15.40;99.90;;;;;;5095860;28;20038;-45
2023/03/24 11:07:48;;;;;;;6.45;1.45;;;15.00;99.90;;;;;;5096408;28;20020;-44
2023/03/24 11:10:17;;;;;;;7.40;1.23;;;14.70;99.90;;;;;;5101424;28;20384;-49
2023/03/24 11:13:01;;;;;;;11.80;1.73;;;14.40;99.90;;;;;;5109095;28;20038;-45
2023/03/24 11:15:36;;;;;;;6.75;1.70;;;14.00;99.90;;;;;;5104194;28;20375;-47
2023/03/24 11:18:10;;;;;;;5.43;1.40;;;13.90;99.90;;;;;;5106216;28;20040;-46
2023/03/24 11:20:38;;;;;;;9.63;2.63;;;14.00;99.90;;;;;;5101122;28;20030;-40
2023/03/24 11:23:33;;;;;;;9.43;1.77;;;14.10;99.90;;;;;;5099676;28;20028;-46
2023/03/24 11:26:17;;;;;;;6.20;1.70;;;14.10;99.90;;;;;;5103018;28;20044;-45
2023/03/24 11:28:54;;;;;;;12.40;2.75;;;14.20;99.90;;;;;;5114945;28;20576;-44
2023/03/24 11:31:31;;;;;;;8.63;1.40;;;14.30;99.90;;;;;;5095069;28;20024;-42
2023/03/24 11:34:08;;;;;;;6.65;1.52;;;14.40;99.90;;;;;;5104774;28;20034;-37
2023/03/24 11:36:36;;;;;;;9.35;2.13;;;14.50;99.90;;;;;;5105894;28;20044;-39
2023/03/24 11:39:08;;;;;;;15.13;2.67;;;14.70;99.90;;;;;;5105494;28;20507;-36
2023/03/24 11:41:35;;;;;;;5.47;1.38;;;14.80;99.90;;;;;;5113986;28;20023;-37
2023/03/24 11:44:23;;;;;;;7.75;1.45;;;14.80;99.90;;;;;;5109815;28;20028;-36
2023/03/24 11:47:03;;;;;;;3.00;1.10;;;14.60;99.90;;;;;;5115368;28;20027;-37
2023/03/24 11:49:39;;;;;;;9.93;1.60;;;14.50;99.90;;;;;;5095312;28;20030;-35
2023/03/24 11:52:11;;;;;;;5.20;1.33;;;14.50;99.90;;;;;;5099831;28;20110;-37
2023/03/24 11:54:36;;;;;;;10.27;1.30;;;14.50;99.90;;;;;;5105305;28;20082;-36
2023/03/24 11:57:08;;;;;;;2.88;1.10;;;14.50;99.90;;;;;;5105167;28;20475;-39
2023/03/24 11:59:44;;;;;;;5.00;1.00;;;14.50;99.90;;;;;;5101095;28;20028;-39
2023/03/24 12:02:29;;;;;;;4.40;1.15;;;14.30;99.90;;;;;;5099387;28;20059;-40
2023/03/24 12:05:22;;;;;;;6.43;0.93;;;14.20;99.90;;;;;;5103655;28;20031;-39
2023/03/24 12:08:21;;;;;;;27.63;1.88;;;14.10;99.90;;;;;;5107997;28;20495;-36
2023/03/24 12:10:57;;;;;;;10.02;1.55;;;14.10;99.90;;;;;;5100207;28;20028;-36
2023/03/24 12:13:36;;;;;;;4.22;1.27;;;14.10;99.90;;;;;;5114562;28;20064;-38
2023/03/24 12:16:26;;;;;;;5.65;0.90;;;14.20;99.90;;;;;;5114431;28;20027;-40
2023/03/24 12:19:29;;;;;;;8.40;1.08;;;14.30;99.90;;;;;;5114339;28;20024;-38
2023/03/24 12:22:00;;;;;;;5.07;1.13;;;14.20;99.90;;;;;;5114211;28;20031;-40
2023/03/24 12:24:45;;;;;;;8.27;0.90;;;14.20;99.90;;;;;;5113893;28;20106;-41
2023/03/24 12:27:35;;;;;;;8.65;0.98;;;14.40;99.90;;;;;;5114462;28;20063;-36
2023/03/24 12:30:07;;;;;;;7.70;0.98;;;14.40;99.90;;;;;;5114057;28;20070;-40
2023/03/24 12:32:45;;;;;;;5.25;0.80;;;14.30;99.90;;;;;;5114131;28;20514;-39
2023/03/24 12:35:20;;;;;;;;;;;14.30;99.90;;;;;;5114419;27;20488;-39
2023/03/24 12:38:04;;;;;;;4.53;0.82;;;14.30;99.90;;;;;;5114049;28;20368;-38
2023/03/24 12:40:33;;;;;;;7.20;1.30;;;14.30;99.90;;;;;;5096193;28;20028;-36
2023/03/24 12:43:14;;;;;;;3.90;0.80;;;14.50;99.90;;;;;;5092193;28;20048;-39
2023/03/24 12:45:52;;;;;;;4.68;1.33;;;14.80;99.90;;;;;;5092221;28;20024;-37
2023/03/24 12:48:29;;;;;;;11.60;0.98;;;15.30;99.90;;;;;;5093726;28;20349;-39
2023/03/24 12:51:25;;;;;;;5.72;1.27;;;15.60;99.90;;;;;;5093801;28;20052;-37
2023/03/24 12:54:16;;;;;;;8.52;1.10;;;15.80;99.90;;;;;;5093382;28;20114;-39
2023/03/24 12:56:47;;;;;;;5.22;0.85;;;15.80;99.90;;;;;;5093631;28;20024;-40
2023/03/24 12:59:37;;;;;;;12.30;1.00;;;15.60;99.90;;;;;;5093296;28;20049;-37
2023/03/24 13:02:25;;;;;;;6.35;1.75;;;15.50;99.90;;;;;;5092861;28;20496;-37
2023/03/24 13:04:54;;;;;;;16.70;2.03;;;15.50;99.90;;;;;;5093495;28;20551;-37
2023/03/24 13:07:27;;;;;;;7.78;0.95;;;15.60;99.90;;;;;;5093195;28;20031;-40
2023/03/24 13:10:06;;;;;;;11.18;1.10;;;15.60;99.90;;;;;;5093145;28;20020;-37
2023/03/24 13:12:32;;;;;;;4.68;1.08;;;15.60;99.90;;;;;;5093145;28;20380;-39